createdAt,value
2018-02-09T00:01:00.064Z,45.55
2018-02-09T00:03:26.607Z,46.72
2018-02-09T00:05:53.151Z,45.22
2018-02-09T00:08:19.674Z,47.47
2018-02-09T00:10:47.944Z,47.40
2018-02-09T00:13:14.451Z,47.58
2018-02-09T00:15:40.904Z,51.88
2018-02-09T00:18:07.462Z,50.08
2018-02-09T00:20:33.930Z,49.85
2018-02-09T00:23:00.486Z,48.55
2018-02-09T00:25:27.031Z,49.13
2018-02-09T00:27:53.513Z,46.28
2018-02-09T00:30:20.747Z,47.83
2018-02-09T00:32:47.546Z,47.53
2018-02-09T00:35:14.081Z,51.92
2018-02-09T00:37:40.714Z,46.30
2018-02-09T00:40:07.197Z,47.50
2018-02-09T00:42:33.792Z,44.08
2018-02-09T00:45:00.223Z,46.97
2018-02-09T00:47:26.682Z,48.28
2018-02-09T00:49:53.133Z,46.88
2018-02-09T00:52:19.646Z,45.67
2018-02-09T00:54:46.238Z,47.28
2018-02-09T00:57:13.438Z,46.33
2018-02-09T00:59:40.081Z,47.17
2018-02-09T01:02:06.550Z,47.22
2018-02-09T01:04:33.716Z,46.03
2018-02-09T01:07:00.262Z,47.45
2018-02-09T01:09:26.696Z,46.30
2018-02-09T01:11:53.254Z,48.85
2018-02-09T01:14:19.722Z,44.63
2018-02-09T01:16:47.015Z,44.50
2018-02-09T01:19:13.522Z,45.35
2018-02-09T01:21:40.817Z,46.08
2018-02-09T01:24:07.321Z,44.83
2018-02-09T01:26:33.803Z,45.45
2018-02-09T01:29:00.303Z,48.03
2018-02-09T01:31:26.744Z,44.97
2018-02-09T01:33:53.169Z,50.72
2018-02-09T01:36:19.895Z,48.85
2018-02-09T01:38:47.120Z,47.03
2018-02-09T01:41:13.577Z,46.30
2018-02-09T01:43:40.744Z,46.45
2018-02-09T01:46:07.251Z,48.92
2018-02-09T01:48:34.540Z,49.10
2018-02-09T01:51:01.003Z,46.45
2018-02-09T01:53:27.567Z,46.95
2018-02-09T01:55:54.803Z,45.65
2018-02-09T01:58:21.302Z,45.50
2018-02-09T02:00:47.743Z,45.12
2018-02-09T02:03:14.255Z,43.35
2018-02-09T02:05:40.803Z,46.30
2018-02-09T02:08:07.237Z,39.88
2018-02-09T02:10:33.771Z,42.40
2018-02-09T02:13:00.228Z,42.80
2018-02-09T02:15:26.758Z,44.65
2018-02-09T02:17:53.247Z,43.92
2018-02-09T02:20:19.754Z,42.83
2018-02-09T02:22:46.204Z,44.15
2018-02-09T02:25:13.419Z,44.55
2018-02-09T02:27:39.955Z,45.42
2018-02-09T02:30:06.404Z,45.70
2018-02-09T02:32:33.699Z,42.80
2018-02-09T02:35:00.904Z,44.22
2018-02-09T02:37:27.395Z,39.97
2018-02-09T02:39:53.864Z,42.40
2018-02-09T02:42:20.331Z,44.10
2018-02-09T02:44:46.833Z,42.92
2018-02-09T02:47:13.351Z,42.85
2018-02-09T02:49:39.842Z,46.03
2018-02-09T02:52:06.308Z,41.85
2018-02-09T02:54:32.798Z,42.60
2018-02-09T02:57:00.152Z,40.50
2018-02-09T02:59:27.417Z,40.70
2018-02-09T03:01:54.644Z,43.03
2018-02-09T03:04:21.126Z,39.78
2018-02-09T03:06:47.553Z,38.30
2018-02-09T03:09:15.282Z,35.97
2018-02-09T03:11:41.753Z,36.13
2018-02-09T03:14:08.195Z,43.17
2018-02-09T03:16:34.691Z,43.63
2018-02-09T03:19:01.911Z,44.65
2018-02-09T03:21:29.155Z,41.72
2018-02-09T03:23:55.978Z,41.17
2018-02-09T03:26:22.424Z,40.20
2018-02-09T03:28:48.936Z,41.92
2018-02-09T03:31:15.543Z,39.92
2018-02-09T03:33:42.003Z,40.03
2018-02-09T03:36:08.519Z,42.50
2018-02-09T03:38:34.970Z,41.70
2018-02-09T03:41:01.442Z,39.78
2018-02-09T03:43:28.713Z,41.92
2018-02-09T03:45:55.162Z,41.75
2018-02-09T03:48:22.345Z,43.92
2018-02-09T03:50:48.960Z,40.12
2018-02-09T03:53:16.139Z,41.22
2018-02-09T03:55:42.696Z,42.42
2018-02-09T03:58:09.155Z,40.78
2018-02-09T04:00:36.385Z,38.05
2018-02-09T04:03:03.619Z,41.08
2018-02-09T04:05:30.169Z,42.13
2018-02-09T04:07:56.615Z,40.22
2018-02-09T04:10:23.092Z,40.45
2018-02-09T04:12:49.604Z,38.60
2018-02-09T04:15:16.841Z,40.63
2018-02-09T04:17:43.382Z,37.75
2018-02-09T04:20:09.891Z,39.28
2018-02-09T04:22:36.392Z,40.80
2018-02-09T04:25:02.854Z,38.05
2018-02-09T04:27:29.371Z,39.60
2018-02-09T04:29:55.859Z,39.72
2018-02-09T04:32:23.092Z,39.55
2018-02-09T04:34:49.581Z,40.28
2018-02-09T04:37:16.040Z,38.70
2018-02-09T04:39:42.517Z,41.20
2018-02-09T04:42:09.888Z,39.70
2018-02-09T04:44:36.409Z,40.45
2018-02-09T04:47:03.650Z,40.38
2018-02-09T04:49:30.891Z,40.88
2018-02-09T04:51:57.427Z,41.50
2018-02-09T04:54:23.859Z,41.50
2018-02-09T04:56:50.361Z,40.60
2018-02-09T04:59:16.797Z,40.88
2018-02-09T05:01:43.412Z,41.60
2018-02-09T05:04:09.888Z,39.67
2018-02-09T05:06:36.356Z,40.45
2018-02-09T05:09:02.793Z,43.53
2018-02-09T05:11:29.258Z,42.00
2018-02-09T05:13:55.735Z,38.88
2018-02-09T05:16:22.236Z,39.50
2018-02-09T05:18:49.588Z,39.95
2018-02-09T05:21:16.066Z,36.85
2018-02-09T05:23:42.602Z,41.00
2018-02-09T05:26:09.839Z,39.67
2018-02-09T05:28:36.346Z,39.22
2018-02-09T05:31:03.011Z,38.85
2018-02-09T05:33:29.506Z,39.42
2018-02-09T05:35:56.003Z,42.60
2018-02-09T05:38:22.577Z,39.72
2018-02-09T05:40:49.043Z,40.15
2018-02-09T05:43:15.525Z,39.47
2018-02-09T05:45:42.036Z,35.60
2018-02-09T05:48:09.291Z,36.40
2018-02-09T05:50:36.471Z,35.95
2018-02-09T05:53:03.110Z,41.42
2018-02-09T05:55:29.630Z,39.65
2018-02-09T05:57:56.112Z,39.75
2018-02-09T06:00:22.695Z,42.97
2018-02-09T06:02:49.209Z,40.45
2018-02-09T06:05:15.732Z,39.38
2018-02-09T06:07:42.251Z,39.85
2018-02-09T06:10:08.809Z,39.85
2018-02-09T06:12:35.323Z,38.45
2018-02-09T06:15:01.849Z,34.70
2018-02-09T06:17:28.455Z,32.70
2018-02-09T06:19:54.938Z,37.95
2018-02-09T06:22:21.388Z,38.47
2018-02-09T06:24:47.995Z,40.53
2018-02-09T06:27:14.591Z,39.05
2018-02-09T06:29:41.082Z,36.42
2018-02-09T06:32:07.571Z,37.13
2018-02-09T06:34:34.058Z,35.47
2018-02-09T06:37:00.610Z,34.90
2018-02-09T06:39:27.796Z,37.00
2018-02-09T06:41:54.286Z,36.70
2018-02-09T06:44:21.503Z,35.65
2018-02-09T06:46:48.097Z,33.83
2018-02-09T06:49:14.594Z,36.45
2018-02-09T06:51:41.214Z,20.42
2018-02-09T06:54:07.715Z,37.65
2018-02-09T06:56:34.276Z,34.50
2018-02-09T06:59:01.000Z,34.20
2018-02-09T07:01:27.506Z,39.90
2018-02-09T07:03:54.050Z,35.03
2018-02-09T07:06:20.590Z,33.13
2018-02-09T07:08:47.151Z,32.65
2018-02-09T07:11:13.655Z,29.25
2018-02-09T07:13:40.240Z,37.35
2018-02-09T07:16:06.760Z,32.60
2018-02-09T07:18:33.264Z,33.60
2018-02-09T07:20:59.730Z,37.67
2018-02-09T07:23:26.211Z,37.25
2018-02-09T07:25:53.541Z,35.90
2018-02-09T07:28:20.067Z,38.40
2018-02-09T07:30:46.776Z,34.95
2018-02-09T07:33:13.305Z,35.65
2018-02-09T07:35:39.819Z,36.03
2018-02-09T07:38:06.326Z,36.53
2018-02-09T07:40:32.830Z,35.85
2018-02-09T07:42:59.336Z,33.38
2018-02-09T07:45:25.843Z,31.37
2018-02-09T07:47:53.068Z,34.28
2018-02-09T07:50:19.703Z,21.33
2018-02-09T07:52:46.328Z,36.10
2018-02-09T07:55:12.872Z,38.33
2018-02-09T07:57:39.517Z,37.92
2018-02-09T08:00:06.039Z,30.23
2018-02-09T08:02:32.682Z,29.02
2018-02-09T08:04:59.164Z,34.10
2018-02-09T08:07:28.509Z,30.25
2018-02-09T08:09:55.240Z,31.98
2018-02-09T08:12:21.739Z,34.05
2018-02-09T08:14:49.171Z,29.10
2018-02-09T08:17:15.746Z,32.85
2018-02-09T08:19:42.230Z,38.10
2018-02-09T08:22:08.914Z,35.38
2018-02-09T08:24:35.479Z,32.65
2018-02-09T08:27:02.126Z,35.15
2018-02-09T08:29:28.641Z,32.70
2018-02-09T08:31:55.215Z,27.98
2018-02-09T08:34:21.635Z,32.78
2018-02-09T08:36:48.237Z,34.55
2018-02-09T08:39:14.952Z,33.05
2018-02-09T08:41:41.454Z,23.20
2018-02-09T08:44:07.893Z,22.40
2018-02-09T08:46:34.522Z,18.65
2018-02-09T08:49:00.986Z,24.65
2018-02-09T08:51:28.220Z,26.77
2018-02-09T08:53:54.779Z,32.20
2018-02-09T08:56:21.480Z,32.42
2018-02-09T08:58:48.254Z,24.87
2018-02-09T09:01:15.582Z,20.12
2018-02-09T09:03:42.279Z,32.83
2018-02-09T09:06:08.819Z,26.12
2018-02-09T09:08:35.295Z,24.92
2018-02-09T09:11:01.798Z,30.33
2018-02-09T09:13:28.364Z,30.83
2018-02-09T09:15:54.918Z,32.55
2018-02-09T09:18:22.213Z,33.78
2018-02-09T09:20:48.698Z,29.17
2018-02-09T09:23:15.316Z,32.30
2018-02-09T09:25:41.806Z,24.02
2018-02-09T09:28:08.318Z,15.85
2018-02-09T09:30:35.588Z,30.20
2018-02-09T09:33:02.128Z,30.88
2018-02-09T09:35:28.679Z,29.77
2018-02-09T09:37:55.166Z,31.25
2018-02-09T09:40:22.484Z,27.33
2018-02-09T09:42:48.995Z,31.10
2018-02-09T09:45:15.566Z,30.60
2018-02-09T09:47:42.077Z,31.92
2018-02-09T09:50:09.587Z,25.85
2018-02-09T09:52:36.661Z,24.95
2018-02-09T09:55:04.529Z,29.23
2018-02-09T09:57:32.896Z,20.15
2018-02-09T10:00:01.462Z,26.05
2018-02-09T10:02:40.196Z,16.70
2018-02-09T10:05:07.709Z,27.75
2018-02-09T10:07:34.749Z,31.30
2018-02-09T10:10:02.002Z,26.77
2018-02-09T10:12:29.805Z,25.80
2018-02-09T10:14:57.386Z,25.80
2018-02-09T10:17:26.442Z,21.92
2018-02-09T10:19:55.316Z,24.52
2018-02-09T10:22:24.472Z,27.87
2018-02-09T10:24:52.441Z,27.77
2018-02-09T10:27:21.973Z,29.40
2018-02-09T10:29:50.052Z,22.70
2018-02-09T10:32:18.619Z,25.00
2018-02-09T10:34:47.232Z,26.73
2018-02-09T10:37:14.577Z,27.73
2018-02-09T10:39:43.215Z,15.90
2018-02-09T10:42:11.326Z,21.67
2018-02-09T10:44:40.167Z,21.25
2018-02-09T10:47:08.586Z,17.23
2018-02-09T10:49:36.606Z,24.23
2018-02-09T10:52:08.063Z,29.17
2018-02-09T10:54:36.780Z,26.50
2018-02-09T10:57:05.924Z,27.15
2018-02-09T10:59:39.753Z,18.83
2018-02-09T11:02:10.715Z,28.08
2018-02-09T11:04:42.209Z,24.35
2018-02-09T11:07:08.873Z,24.90
2018-02-09T11:09:36.076Z,27.42
2018-02-09T11:12:06.502Z,27.58
2018-02-09T11:14:33.097Z,30.17
2018-02-09T11:16:59.734Z,28.17
2018-02-09T11:19:26.327Z,28.42
2018-02-09T11:21:53.358Z,28.67
2018-02-09T11:24:20.015Z,27.20
2018-02-09T11:26:46.581Z,27.02
2018-02-09T11:29:13.970Z,26.62
2018-02-09T11:31:40.702Z,27.33
2018-02-09T11:34:07.251Z,24.30
2018-02-09T11:36:34.187Z,24.60
2018-02-09T11:39:00.755Z,24.08
2018-02-09T11:41:27.433Z,26.92
2018-02-09T11:43:54.860Z,25.77
2018-02-09T11:46:21.484Z,25.48
2018-02-09T11:48:48.353Z,24.35
2018-02-09T11:51:14.997Z,24.55
2018-02-09T11:53:42.299Z,23.62
2018-02-09T11:56:08.842Z,25.48
2018-02-09T11:58:36.056Z,24.70
2018-02-09T12:01:02.708Z,23.48
2018-02-09T12:03:29.261Z,23.77
2018-02-09T12:05:56.469Z,26.23
2018-02-09T12:08:23.677Z,26.48
2018-02-09T12:10:50.474Z,25.52
2018-02-09T12:13:16.951Z,28.90
2018-02-09T12:15:43.430Z,28.00
2018-02-09T12:18:10.656Z,25.42
2018-02-09T12:20:37.258Z,23.10
2018-02-09T12:23:04.430Z,24.42
2018-02-09T12:25:30.953Z,27.25
2018-02-09T12:27:57.472Z,25.80
2018-02-09T12:30:23.974Z,27.25
2018-02-09T12:32:51.242Z,24.77
2018-02-09T12:35:17.826Z,26.87
2018-02-09T12:37:44.355Z,26.20
2018-02-09T12:40:10.812Z,27.92
2018-02-09T12:42:38.313Z,27.27
2018-02-09T12:45:04.846Z,29.27
2018-02-09T12:47:31.307Z,27.33
2018-02-09T12:49:58.025Z,29.08
2018-02-09T12:52:24.641Z,28.35
2018-02-09T12:54:51.140Z,26.90
2018-02-09T12:57:17.804Z,28.05
2018-02-09T12:59:44.798Z,24.02
2018-02-09T13:02:11.475Z,27.27
2018-02-09T13:04:38.016Z,21.75
2018-02-09T13:07:04.537Z,28.05
2018-02-09T13:09:31.788Z,23.38
2018-02-09T13:11:58.400Z,24.40
2018-02-09T13:14:37.048Z,32.83
2018-02-09T13:17:03.819Z,34.95
2018-02-09T13:19:30.347Z,27.75
2018-02-09T13:21:56.921Z,31.87
2018-02-09T13:24:26.483Z,26.52
2018-02-09T13:26:53.787Z,25.37
2018-02-09T13:29:20.590Z,27.52
2018-02-09T13:31:47.266Z,29.10
2018-02-09T13:34:13.735Z,26.70
2018-02-09T13:40:00.425Z,17.17
2018-02-09T13:42:27.758Z,24.60
2018-02-09T13:44:54.334Z,21.58
2018-02-09T13:47:20.851Z,26.50
2018-02-09T13:49:47.365Z,28.25
2018-02-09T13:52:13.877Z,29.58
2018-02-09T13:54:41.192Z,26.35
2018-02-09T13:57:07.738Z,27.37
2018-02-09T13:59:34.222Z,26.98
2018-02-09T14:02:00.712Z,26.02
2018-02-09T14:04:27.220Z,30.25
2018-02-09T14:06:53.755Z,16.58
2018-02-09T14:09:20.308Z,16.52
2018-02-09T14:11:46.918Z,27.52
2018-02-09T14:14:13.401Z,27.92
2018-02-09T14:16:40.771Z,26.75
2018-02-09T14:19:07.229Z,24.77
2018-02-09T14:21:33.874Z,27.02
2018-02-09T14:24:00.364Z,25.95
2018-02-09T14:26:26.917Z,25.70
2018-02-09T14:28:53.565Z,23.40
2018-02-09T14:31:20.161Z,18.20
2018-02-09T14:33:46.681Z,24.55
2018-02-09T14:36:14.051Z,18.02
2018-02-09T14:38:40.583Z,21.27
2018-02-09T14:41:07.074Z,23.50
2018-02-09T14:43:33.735Z,25.10
2018-02-09T14:46:00.303Z,23.80
2018-02-09T14:48:27.556Z,25.37
2018-02-09T14:50:54.884Z,25.45
2018-02-09T14:53:21.401Z,20.92
2018-02-09T14:55:47.899Z,22.75
2018-02-09T14:58:14.491Z,21.80
2018-02-09T15:00:41.720Z,21.48
2018-02-09T15:03:08.183Z,22.37
2018-02-09T15:05:35.505Z,22.87
2018-02-09T15:08:01.954Z,22.58
2018-02-09T15:10:30.400Z,23.55
2018-02-09T15:12:56.939Z,23.98
2018-02-09T15:15:23.466Z,24.37
2018-02-09T15:17:50.030Z,23.95
2018-02-09T15:20:16.615Z,27.85
2018-02-09T15:22:43.866Z,24.70
2018-02-09T15:25:11.182Z,28.65
2018-02-09T15:27:37.684Z,23.20
2018-02-09T15:30:05.034Z,22.30
2018-02-09T15:32:31.649Z,25.67
2018-02-09T15:34:58.907Z,22.02
2018-02-09T15:37:25.539Z,22.98
2018-02-09T15:39:52.875Z,20.90
2018-02-09T15:42:19.352Z,23.15
2018-02-09T15:44:45.885Z,23.80
2018-02-09T15:47:12.473Z,23.45
2018-02-09T15:49:39.438Z,23.08
2018-02-09T15:52:06.703Z,23.15
2018-02-09T15:54:34.020Z,22.95
2018-02-09T15:57:00.572Z,22.98
2018-02-09T15:59:27.065Z,22.60
2018-02-09T16:01:53.551Z,23.17
2018-02-09T16:04:20.066Z,23.35
2018-02-09T16:06:47.194Z,26.05
2018-02-09T16:09:13.762Z,23.40
2018-02-09T16:11:41.265Z,21.90
2018-02-09T16:14:07.737Z,24.60
2018-02-09T16:16:34.483Z,24.12
2018-02-09T16:19:01.588Z,23.85
2018-02-09T16:21:28.189Z,23.12
2018-02-09T16:23:57.743Z,23.48
2018-02-09T16:26:24.327Z,23.48
2018-02-09T16:28:51.728Z,24.80
2018-02-09T16:31:18.181Z,24.48
2018-02-09T16:33:44.877Z,22.87
2018-02-09T16:36:11.398Z,21.83
2018-02-09T16:38:37.997Z,23.58
2018-02-09T16:41:04.506Z,20.70
2018-02-09T16:43:31.050Z,20.95
2018-02-09T16:45:57.787Z,16.12
2018-02-09T16:48:24.350Z,25.05
2018-02-09T16:50:50.919Z,22.08
2018-02-09T16:53:18.577Z,23.92
2018-02-09T16:55:45.950Z,22.02
2018-02-09T16:58:12.630Z,22.95
2018-02-09T17:00:39.320Z,21.98
2018-02-09T17:03:05.836Z,20.85
2018-02-09T17:05:33.078Z,23.80
2018-02-09T17:08:00.393Z,24.95
2018-02-09T17:10:26.884Z,23.20
2018-02-09T17:12:54.184Z,25.37
2018-02-09T17:15:20.856Z,21.15
2018-02-09T17:17:47.391Z,22.52
2018-02-09T17:20:13.959Z,22.27
2018-02-09T17:22:40.783Z,23.52
2018-02-09T17:25:08.333Z,18.17
2018-02-09T17:27:34.887Z,18.75
2018-02-09T17:30:01.465Z,21.80
2018-02-09T17:32:28.015Z,26.27
2018-02-09T17:34:54.534Z,18.42
2018-02-09T17:37:21.032Z,17.77
2018-02-09T17:39:47.538Z,23.38
2018-02-09T17:42:14.095Z,17.65
2018-02-09T17:44:40.624Z,21.45
2018-02-09T17:47:07.278Z,19.60
2018-02-09T17:49:33.960Z,20.02
2018-02-09T17:52:00.582Z,22.42
2018-02-09T17:54:27.090Z,23.52
2018-02-09T17:56:53.637Z,20.62
2018-02-09T17:59:20.184Z,21.02
2018-02-09T18:01:46.772Z,23.45
2018-02-09T18:04:15.177Z,19.85
2018-02-09T18:06:41.783Z,18.70
2018-02-09T18:09:08.689Z,22.70
2018-02-09T18:11:35.252Z,20.35
2018-02-09T18:14:01.808Z,22.73
2018-02-09T18:16:29.099Z,19.70
2018-02-09T18:18:55.576Z,24.65
2018-02-09T18:21:22.331Z,25.88
2018-02-09T18:23:48.935Z,23.27
2018-02-09T18:26:15.556Z,24.52
2018-02-09T18:28:42.179Z,21.27
2018-02-09T18:31:08.740Z,20.58
2018-02-09T18:33:35.293Z,22.77
2018-02-09T18:36:01.867Z,20.60
2018-02-09T18:38:28.558Z,21.02
2018-02-09T18:40:55.219Z,24.33
2018-02-09T18:43:21.858Z,20.70
2018-02-09T18:45:48.387Z,20.60
2018-02-09T18:48:14.863Z,22.90
2018-02-09T18:50:41.498Z,26.75
2018-02-09T18:53:08.013Z,21.08
2018-02-09T18:55:35.252Z,25.60
2018-02-09T18:58:01.938Z,17.30
2018-02-09T19:00:28.503Z,26.35
2018-02-09T19:02:55.076Z,28.33
2018-02-09T19:05:22.422Z,23.15
2018-02-09T19:07:48.894Z,30.58
2018-02-09T19:10:15.449Z,28.27
2018-02-09T19:12:42.000Z,26.33
2018-02-09T19:15:08.554Z,28.00
2018-02-09T19:17:36.270Z,30.00
2018-02-09T19:20:03.588Z,27.83
2018-02-09T19:22:31.387Z,28.52
2018-02-09T19:24:57.914Z,30.77
2018-02-09T19:27:24.559Z,19.25
2018-02-09T19:29:51.207Z,20.02
2018-02-09T19:32:17.853Z,24.67
2018-02-09T19:34:44.911Z,29.15
2018-02-09T19:37:11.194Z,34.30
2018-02-09T19:39:37.744Z,32.17
2018-02-09T19:42:04.244Z,27.65
2018-02-09T19:44:30.779Z,29.17
2018-02-09T19:46:58.065Z,29.67
2018-02-09T19:49:24.741Z,27.42
2018-02-09T19:51:51.299Z,28.77
2018-02-09T19:54:18.018Z,28.02
2018-02-09T19:56:44.538Z,27.85
2018-02-09T19:59:11.192Z,29.15
2018-02-09T20:01:38.640Z,29.70
2018-02-09T20:04:05.981Z,28.77
2018-02-09T20:06:32.571Z,28.20
2018-02-09T20:08:59.973Z,29.50
2018-02-09T20:11:26.620Z,28.15
2018-02-09T20:13:54.095Z,31.37
2018-02-09T20:16:20.873Z,33.47
2018-02-09T20:18:47.658Z,28.80
2018-02-09T20:21:17.896Z,29.05
2018-02-09T20:23:45.536Z,30.33
2018-02-09T20:26:12.177Z,28.92
2018-02-09T20:28:38.803Z,30.95
2018-02-09T20:31:05.469Z,31.58
2018-02-09T20:33:32.049Z,31.62
2018-02-09T20:35:58.649Z,35.22
2018-02-09T20:38:25.289Z,29.67
2018-02-09T20:40:51.927Z,29.77
2018-02-09T20:43:18.877Z,29.20
2018-02-09T20:45:45.668Z,29.92
2018-02-09T20:48:12.262Z,28.58
2018-02-09T20:50:38.887Z,31.77
2018-02-09T20:53:05.528Z,25.42
2018-02-09T20:55:32.092Z,30.65
2018-02-09T20:57:59.528Z,27.35
2018-02-09T21:00:27.196Z,31.83
2018-02-09T21:02:54.530Z,31.15
2018-02-09T21:05:21.125Z,30.05
2018-02-09T21:07:47.639Z,30.85
2018-02-09T21:10:14.298Z,29.30
2018-02-09T21:12:40.874Z,28.50
2018-02-09T21:15:07.567Z,30.37
2018-02-09T21:17:34.217Z,27.25
2018-02-09T21:20:00.862Z,30.17
2018-02-09T21:22:27.392Z,31.08
2018-02-09T21:24:54.052Z,28.65
2018-02-09T21:27:20.797Z,30.10
2018-02-09T21:29:47.336Z,31.75
2018-02-09T21:32:14.657Z,28.98
2018-02-09T21:34:41.143Z,27.83
2018-02-09T21:37:08.454Z,28.00
2018-02-09T21:39:35.084Z,27.87
2018-02-09T21:42:01.639Z,32.08
2018-02-09T21:44:28.227Z,29.95
2018-02-09T21:46:54.753Z,30.30
2018-02-09T21:49:21.365Z,31.15
2018-02-09T21:51:47.959Z,28.60
2018-02-09T21:54:14.472Z,31.17
2018-02-09T21:56:41.023Z,31.52
2018-02-09T21:59:07.520Z,32.00
2018-02-09T22:01:34.887Z,32.80
2018-02-09T22:04:01.508Z,29.00
2018-02-09T22:06:28.856Z,32.13
2018-02-09T22:08:55.552Z,30.95
2018-02-09T22:11:21.999Z,32.55
2018-02-09T22:13:48.540Z,31.40
2018-02-09T22:16:15.037Z,27.77
2018-02-09T22:18:41.738Z,31.45
2018-02-09T22:21:08.267Z,29.25
2018-02-09T22:23:34.993Z,31.23
2018-02-09T22:26:01.509Z,27.75
2018-02-09T22:28:28.013Z,32.38
2018-02-09T22:30:54.460Z,31.48
2018-02-09T22:33:21.038Z,30.65
2018-02-09T22:35:47.717Z,30.83
2018-02-09T22:38:14.269Z,31.60
2018-02-09T22:40:40.733Z,30.45
2018-02-09T22:43:07.420Z,29.48
2018-02-09T22:45:34.635Z,27.73
2018-02-09T22:48:01.345Z,30.33
2018-02-09T22:50:27.897Z,31.33
2018-02-09T22:52:54.424Z,31.27
2018-02-09T22:55:21.018Z,31.85
2018-02-09T22:57:47.584Z,30.77
2018-02-09T23:00:14.100Z,32.47
2018-02-09T23:02:40.653Z,29.25
2018-02-09T23:05:07.218Z,33.45
2018-02-09T23:07:33.710Z,31.42
2018-02-09T23:10:00.350Z,33.55
2018-02-09T23:12:26.817Z,30.67
2018-02-09T23:14:53.312Z,29.20
2018-02-09T23:17:19.823Z,33.10
2018-02-09T23:19:47.048Z,32.25
2018-02-09T23:22:13.510Z,32.72
2018-02-09T23:24:40.900Z,33.60
2018-02-09T23:27:07.366Z,33.40
2018-02-09T23:29:33.900Z,26.87
2018-02-09T23:32:00.552Z,33.55
2018-02-09T23:34:27.073Z,28.87
2018-02-09T23:36:53.614Z,29.58
2018-02-09T23:39:20.050Z,31.90
2018-02-09T23:41:46.624Z,31.30
2018-02-09T23:44:13.924Z,31.40
2018-02-09T23:46:41.253Z,33.17
2018-02-09T23:49:07.941Z,35.55
2018-02-09T23:51:35.260Z,30.75
2018-02-09T23:54:01.841Z,29.98
2018-02-09T23:56:28.333Z,33.53
2018-02-09T23:58:54.945Z,33.20
